This is the latest recevied weather packets stored in our database for station/object DC4THF-13. If no packets are shown the sender has not sent any weather packets the latest 10 day(s).
| Time | Temp. | Humidity | Pressure | Rain* | Wind** | Luminosity | Snow |
|---|---|---|---|---|---|---|---|
| 1787423585 | 17.22° C | 54% | 1010.3 hPa | 0 mm | - | - | - |
| 1787422982 | 17.78° C | 50% | 1010.1 hPa | 0 mm | - | - | - |
| 1787422374 | 17.78° C | 48% | 1009.9 hPa | 0 mm | - | - | - |
| 1787421771 | 18.33° C | 47% | 1009.6 hPa | 0 mm | - | - | - |
| 1787421163 | 18.89° C | 45% | 1009.6 hPa | 0 mm | - | - | - |
| 1787420560 | 18.89° C | 46% | 1009.4 hPa | 0 mm | - | - | - |
| 1787419951 | 18.89° C | 51% | 1009.3 hPa | 0 mm | - | - | - |
| 1787419348 | 18.89° C | 50% | 1009 hPa | 0 mm | - | - | - |
| 1787418740 | 19.44° C | 50% | 1008.8 hPa | 0 mm | - | - | - |
| 1787418136 | 20° C | 47% | 1008.5 hPa | 0 mm | - | - | - |
| 1787417588 | 20.56° C | 45% | 1008.1 hPa | 0 mm | - | - | - |
| 1787416984 | 21.11° C | 43% | 1008 hPa | 0 mm | - | - | - |
| 1787416374 | 20.56° C | 44% | 1008.4 hPa | 0 mm | - | - | - |
| 1787415770 | 20.56° C | 43% | 1008.6 hPa | 0 mm | - | - | - |
| 1787415162 | 20.56° C | 43% | 1008.7 hPa | 0 mm | - | - | - |
| 1787414558 | 21.11° C | 44% | 1008.4 hPa | 0 mm | - | - | - |
| 1787413948 | 21.11° C | 45% | 1008.3 hPa | 0 mm | - | - | - |
| 1787413339 | 21.11° C | 46% | 1008.3 hPa | 0 mm | - | - | - |
| 1787412736 | 20.56° C | 47% | 1008.2 hPa | 0 mm | - | - | - |
| 1787412187 | 21.11° C | 43% | 1007.9 hPa | 0 mm | - | - | - |
| 1787411583 | 22.22° C | 40% | 1007.8 hPa | 0 mm | - | - | - |
| 1787410974 | 23.33° C | 36% | 1007.7 hPa | 0 mm | - | - | - |
| 1787410372 | 22.78° C | 40% | 1007.6 hPa | 0 mm | - | - | - |
| 1787409764 | 22.22° C | 46% | 1007.6 hPa | 0 mm | - | - | - |
| 1787409161 | 21.67° C | 45% | 1007.6 hPa | 0 mm | - | - | - |
* Rain latest hour (hover to see other rain measurements)
** Current wind speed in m/s (hover to see current wind gust speed)